Time;durP1;ratioP1;P1;durP2;ratioP2;P2;SDS_P1;SDS_P2;PMS_P1;PMS_P2;Temp;Humidity;BMP_temperature;BMP_pressure;BME280_temperature;BME280_humidity;BME280_pressure;Samples;Min_cycle;Max_cycle;Signal;HPM_P1;HPM_P2
2021/12/07 00:01:20;;;;;;;12.83;9.40;;;0.20;97.80;;;;;;5029139;28;20237;-83
2021/12/07 00:03:47;;;;;;;13.53;9.67;;;0.20;98.20;;;;;;5026900;28;20202;-83
2021/12/07 00:06:14;;;;;;;14.43;9.47;;;0.20;98.00;;;;;;5021046;28;20222;-83
2021/12/07 00:08:41;;;;;;;14.00;10.17;;;0.20;98.30;;;;;;5027732;28;20215;-82
2021/12/07 00:11:11;;;;;;;13.43;9.50;;;0.20;98.50;;;;;;5015301;28;20677;-85
2021/12/07 00:13:44;;;;;;;14.27;9.63;;;0.30;98.10;;;;;;5030419;28;20314;-82
2021/12/07 00:16:13;;;;;;;13.40;9.33;;;0.10;97.70;;;;;;5021285;28;20299;-83
2021/12/07 00:18:41;;;;;;;12.10;9.33;;;0.00;98.10;;;;;;5001381;28;20210;-85
2021/12/07 00:21:09;;;;;;;12.43;9.00;;;0.10;98.10;;;;;;5013930;28;20233;-84
2021/12/07 00:23:37;;;;;;;12.67;9.30;;;0.20;98.50;;;;;;5026658;28;20203;-86
2021/12/07 00:26:05;;;;;;;14.00;8.97;;;0.30;98.30;;;;;;5015431;28;20306;-84
2021/12/07 00:28:34;;;;;;;11.27;8.33;;;0.10;97.80;;;;;;5026062;28;20206;-84
2021/12/07 00:31:10;;;;;;;12.63;9.07;;;0.00;97.80;;;;;;5019750;28;20697;-83
2021/12/07 00:33:44;;;;;;;11.73;8.77;;;0.10;98.10;;;;;;5023352;28;20266;-84
2021/12/07 00:36:12;;;;;;;12.13;8.77;;;0.10;98.50;;;;;;5006490;28;20216;-83
2021/12/07 00:38:39;;;;;;;11.27;8.10;;;0.30;97.90;;;;;;5019318;28;20690;-87
2021/12/07 00:41:06;;;;;;;12.23;8.90;;;0.20;98.10;;;;;;5028089;28;20234;-85
2021/12/07 00:43:35;;;;;;;11.73;8.20;;;0.20;97.80;;;;;;5030048;28;20230;-84
2021/12/07 00:46:02;;;;;;;11.10;8.30;;;0.40;98.00;;;;;;5017856;28;20223;-84
2021/12/07 00:48:30;;;;;;;11.33;8.13;;;0.40;98.10;;;;;;5013954;28;20214;-85
2021/12/07 00:50:58;;;;;;;10.13;7.97;;;0.30;97.40;;;;;;5016601;28;20569;-89
2021/12/07 00:53:27;;;;;;;9.60;7.83;;;0.40;97.40;;;;;;5004987;28;20211;-85
2021/12/07 00:55:57;;;;;;;11.80;8.10;;;0.40;97.20;;;;;;5005039;28;20238;-85
2021/12/07 00:58:25;;;;;;;10.57;7.73;;;0.30;97.00;;;;;;5028993;28;20214;-87
2021/12/07 01:00:56;;;;;;;9.50;7.13;;;0.20;97.20;;;;;;5021347;28;20232;-85
2021/12/07 01:03:24;;;;;;;9.60;7.57;;;0.30;97.40;;;;;;5009574;28;20290;-85
2021/12/07 01:06:02;;;;;;;8.83;6.77;;;0.30;97.40;;;;;;5006680;28;20226;-83
2021/12/07 01:08:54;;;;;;;10.83;7.47;;;0.20;97.10;;;;;;5010611;28;20207;-84
2021/12/07 01:25:10;;;;;;;8.93;6.70;;;0.30;96.90;;;;;;5010384;28;20242;-84
2021/12/07 01:27:37;;;;;;;8.13;6.10;;;0.50;97.30;;;;;;5016534;28;20231;-84
2021/12/07 01:30:11;;;;;;;6.70;5.50;;;0.60;96.80;;;;;;5026638;28;20203;-83
2021/12/07 01:39:27;;;;;;;8.17;5.47;;;0.20;96.20;;;;;;5019105;28;20226;-84
2021/12/07 01:41:41;;;;;;;6.27;5.13;;;0.00;96.60;;;;;;5020922;28;20253;-84
2021/12/07 01:44:42;;;;;;;6.33;5.13;;;0.00;96.70;;;;;;5025691;28;20224;-83
2021/12/07 01:53:15;;;;;;;5.63;4.13;;;0.10;97.50;;;;;;5012260;28;20701;-83
2021/12/07 02:01:12;;;;;;;5.03;3.97;;;0.10;97.00;;;;;;5016452;28;20237;-82
2021/12/07 02:03:40;;;;;;;4.20;3.20;;;0.40;97.10;;;;;;5035136;28;20214;-84
2021/12/07 02:06:10;;;;;;;3.97;3.23;;;0.80;96.80;;;;;;5026994;28;20272;-84
2021/12/07 02:08:37;;;;;;;3.77;2.60;;;1.10;95.40;;;;;;5018947;28;20665;-84
2021/12/07 02:11:04;;;;;;;3.47;2.80;;;1.20;94.40;;;;;;5017120;28;20716;-84
2021/12/07 02:16:18;;;;;;;3.13;2.20;;;1.00;94.00;;;;;;5017821;28;20234;-85
2021/12/07 02:18:45;;;;;;;3.27;2.47;;;1.10;94.20;;;;;;5023636;28;20209;-86
2021/12/07 02:21:23;;;;;;;3.87;2.30;;;1.30;94.30;;;;;;5034125;28;20228;-82
2021/12/07 02:23:50;;;;;;;3.33;2.17;;;1.40;93.60;;;;;;5024365;28;20202;-85
2021/12/07 02:26:18;;;;;;;3.63;2.20;;;1.30;93.30;;;;;;5026458;28;20246;-84
2021/12/07 02:28:46;;;;;;;3.70;2.20;;;1.30;94.00;;;;;;5018699;28;20215;-85
2021/12/07 02:31:14;;;;;;;2.33;2.10;;;1.20;93.20;;;;;;5011853;28;20242;-84
2021/12/07 02:33:41;;;;;;;2.30;2.10;;;1.10;93.80;;;;;;5007983;28;20545;-87
2021/12/07 02:36:08;;;;;;;2.53;2.10;;;1.20;93.50;;;;;;5016592;28;20230;-84
2021/12/07 02:38:38;;;;;;;2.47;1.80;;;1.30;92.90;;;;;;5016989;28;20199;-85
2021/12/07 02:41:05;;;;;;;2.13;1.93;;;1.40;93.00;;;;;;5015945;28;20230;-84
2021/12/07 02:43:33;;;;;;;2.00;1.80;;;1.40;93.00;;;;;;5027628;28;20229;-85
2021/12/07 02:46:00;;;;;;;2.13;1.60;;;1.50;93.00;;;;;;5023992;28;20578;-85
2021/12/07 02:48:28;;;;;;;2.10;1.90;;;1.50;91.80;;;;;;5021508;28;20211;-83
2021/12/07 02:50:55;;;;;;;2.13;1.67;;;1.50;92.70;;;;;;5017985;28;20244;-84
2021/12/07 02:53:25;;;;;;;2.30;1.90;;;1.40;92.40;;;;;;5017884;28;20217;-84
2021/12/07 02:55:55;;;;;;;3.00;1.77;;;1.30;92.30;;;;;;5006537;28;20690;-87
2021/12/07 02:58:23;;;;;;;2.33;1.77;;;1.10;92.30;;;;;;5018243;28;20207;-84
2021/12/07 03:00:57;;;;;;;3.07;1.90;;;1.30;93.00;;;;;;5029230;28;20241;-83
2021/12/07 03:03:25;;;;;;;1.50;1.40;;;1.40;92.30;;;;;;5014405;28;20198;-84
2021/12/07 03:06:04;;;;;;;2.83;1.70;;;1.40;93.40;;;;;;5014694;28;20310;-84
2021/12/07 03:27:54;;;;;;;1.53;1.43;;;1.60;92.80;;;;;;5015610;28;20378;-84
2021/12/07 03:30:22;;;;;;;1.73;1.47;;;1.60;92.10;;;;;;5013780;28;20682;-85
2021/12/07 03:32:49;;;;;;;1.93;1.40;;;1.60;92.40;;;;;;4997629;28;20306;-84
2021/12/07 03:35:16;;;;;;;1.60;1.50;;;1.60;92.00;;;;;;5010368;28;20194;-85
2021/12/07 03:37:43;;;;;;;2.43;1.60;;;1.50;92.60;;;;;;5025356;28;20230;-84
2021/12/07 03:40:13;;;;;;;2.70;1.80;;;1.30;93.60;;;;;;5019043;28;20203;-84
2021/12/07 03:42:40;;;;;;;2.10;1.80;;;1.30;95.00;;;;;;5017025;28;20772;-84
2021/12/07 03:45:10;;;;;;;3.27;2.10;;;1.40;95.20;;;;;;5029451;28;20230;-84
2021/12/07 03:47:38;;;;;;;2.57;2.13;;;1.30;94.60;;;;;;5016099;28;20230;-83
2021/12/07 03:50:07;;;;;;;2.50;2.10;;;1.40;95.90;;;;;;5020807;28;20210;-86
2021/12/07 03:52:34;;;;;;;3.17;2.23;;;1.30;95.00;;;;;;5008845;28;20227;-84
2021/12/07 03:55:01;;;;;;;3.70;2.17;;;1.30;95.70;;;;;;5009941;28;20211;-84
2021/12/07 03:57:28;;;;;;;2.30;2.10;;;1.40;94.60;;;;;;5024650;28;20241;-85
2021/12/07 03:59:55;;;;;;;2.43;2.10;;;1.30;95.00;;;;;;5008385;28;20670;-84
2021/12/07 04:02:24;;;;;;;2.20;2.00;;;1.40;95.60;;;;;;5024425;28;20230;-84
2021/12/07 04:04:58;;;;;;;2.77;2.03;;;1.30;95.10;;;;;;5015392;28;20211;-83
2021/12/07 04:07:26;;;;;;;2.73;1.87;;;1.20;95.20;;;;;;5020870;28;20572;-83
2021/12/07 04:09:54;;;;;;;2.40;2.17;;;1.20;96.20;;;;;;5011674;28;20195;-83
2021/12/07 04:12:21;;;;;;;2.43;2.00;;;1.30;96.00;;;;;;5006743;28;20244;-84
2021/12/07 04:14:48;;;;;;;2.90;1.90;;;1.30;95.70;;;;;;5009162;28;20204;-84
2021/12/07 04:17:15;;;;;;;2.50;2.00;;;1.50;95.40;;;;;;4999478;28;20224;-84
2021/12/07 04:19:43;;;;;;;2.77;2.20;;;1.30;95.10;;;;;;5003497;28;20211;-84
2021/12/07 04:22:13;;;;;;;2.63;2.23;;;1.20;95.00;;;;;;5013773;28;20713;-84
2021/12/07 04:24:39;;;;;;;2.40;1.90;;;1.00;96.20;;;;;;5009246;28;20206;-85
2021/12/07 04:27:06;;;;;;;2.30;1.90;;;1.00;96.80;;;;;;5013469;28;20223;-84
2021/12/07 04:29:33;;;;;;;2.77;2.27;;;1.20;97.20;;;;;;5014401;28;20211;-83
2021/12/07 04:32:01;;;;;;;2.40;2.00;;;1.40;96.30;;;;;;5025549;28;20226;-84
2021/12/07 04:34:28;;;;;;;2.23;2.00;;;1.30;95.60;;;;;;5027068;28;20209;-84
2021/12/07 04:36:56;;;;;;;2.63;2.40;;;1.10;96.00;;;;;;5027783;28;20223;-83
2021/12/07 04:39:23;;;;;;;2.30;1.93;;;1.30;96.50;;;;;;5015148;28;20572;-84
2021/12/07 04:41:52;;;;;;;2.43;2.23;;;1.40;95.90;;;;;;5023266;28;20245;-83
2021/12/07 04:44:21;;;;;;;2.40;1.97;;;1.20;95.70;;;;;;5013844;28;20230;-84
2021/12/07 04:47:00;;;;;;;2.33;2.07;;;1.30;96.40;;;;;;5018046;28;20234;-83
2021/12/07 04:58:04;;;;;;;1.73;1.63;;;1.40;97.20;;;;;;5011124;28;20217;-85
2021/12/07 05:00:31;;;;;;;2.20;1.73;;;1.40;97.40;;;;;;5017060;28;20199;-84
2021/12/07 05:03:02;;;;;;;1.63;1.53;;;1.40;97.80;;;;;;5020633;28;20662;-85
2021/12/07 05:05:33;;;;;;;1.73;1.50;;;1.50;97.10;;;;;;5018000;28;20191;-85
2021/12/07 05:08:05;;;;;;;1.33;1.23;;;1.40;97.40;;;;;;5010028;28;20234;-84
2021/12/07 05:10:37;;;;;;;1.93;1.73;;;1.30;97.60;;;;;;5006675;28;20218;-83
2021/12/07 05:16:27;;;;;;;1.73;1.37;;;1.30;97.70;;;;;;5002612;28;20259;-84
2021/12/07 05:19:05;;;;;;;1.60;1.40;;;1.30;98.20;;;;;;5009349;28;20195;-84
2021/12/07 05:24:21;;;;;;;1.23;1.13;;;1.30;98.20;;;;;;5012781;28;20225;-85
2021/12/07 05:37:54;;;;;;;1.33;1.23;;;1.30;98.80;;;;;;4997696;28;20227;-85
2021/12/07 05:40:26;;;;;;;1.30;1.20;;;1.40;98.50;;;;;;5014361;28;20276;-84
2021/12/07 05:42:54;;;;;;;1.27;1.07;;;1.50;98.40;;;;;;5025541;28;20222;-83
2021/12/07 05:45:25;;;;;;;2.87;1.20;;;1.40;98.60;;;;;;4999119;28;20200;-85
2021/12/07 05:47:53;;;;;;;1.93;1.20;;;1.30;99.00;;;;;;5003823;28;20314;-85
2021/12/07 05:50:23;;;;;;;1.53;1.10;;;1.50;98.80;;;;;;5010730;28;20435;-84
2021/12/07 05:52:51;;;;;;;1.47;1.20;;;1.50;98.60;;;;;;5008423;28;20230;-83
2021/12/07 05:55:19;;;;;;;1.30;1.20;;;1.40;98.80;;;;;;5006253;28;20210;-84
2021/12/07 05:57:48;;;;;;;1.20;1.10;;;1.50;98.90;;;;;;5007675;28;20228;-84
2021/12/07 06:00:23;;;;;;;3.30;1.27;;;1.40;99.00;;;;;;5010512;28;20215;-84
2021/12/07 06:02:50;;;;;;;2.73;1.30;;;1.50;99.50;;;;;;5013698;28;20242;-82
2021/12/07 06:05:17;;;;;;;1.87;1.20;;;1.50;99.10;;;;;;5017965;28;20212;-85
2021/12/07 06:07:44;;;;;;;1.50;1.30;;;1.50;99.00;;;;;;5006836;28;20233;-81
2021/12/07 06:10:25;;;;;;;1.20;1.20;;;1.50;99.10;;;;;;5018675;28;20183;-81
2021/12/07 06:12:53;;;;;;;1.70;1.30;;;1.50;99.10;;;;;;5018022;28;20398;-81
2021/12/07 06:15:23;;;;;;;1.40;1.30;;;1.40;99.30;;;;;;5019566;28;20207;-81
2021/12/07 06:17:51;;;;;;;1.87;1.50;;;1.40;99.20;;;;;;5017989;28;20207;-81
2021/12/07 06:20:20;;;;;;;1.67;1.30;;;1.40;99.10;;;;;;5026439;28;20203;-84
2021/12/07 06:22:47;;;;;;;1.50;1.40;;;1.40;99.20;;;;;;5009007;28;20374;-84
2021/12/07 06:25:14;;;;;;;2.17;1.40;;;1.40;99.20;;;;;;5013671;28;20205;-82
2021/12/07 06:27:42;;;;;;;4.60;1.60;;;1.60;99.30;;;;;;5016163;28;20231;-83
2021/12/07 06:30:13;;;;;;;1.30;1.20;;;1.50;99.00;;;;;;5021871;28;20200;-82
2021/12/07 06:32:41;;;;;;;5.53;1.40;;;1.50;98.70;;;;;;5014776;28;20235;-82
2021/12/07 06:35:10;;;;;;;1.73;1.30;;;1.50;98.60;;;;;;4999216;28;20244;-82
2021/12/07 06:37:38;;;;;;;4.10;1.53;;;1.50;98.60;;;;;;5017917;28;20243;-80
2021/12/07 06:40:07;;;;;;;1.43;1.33;;;1.60;98.50;;;;;;5017893;28;20201;-84
2021/12/07 06:42:36;;;;;;;1.57;1.47;;;1.70;98.40;;;;;;5007026;28;20227;-89
2021/12/07 06:45:03;;;;;;;1.33;1.23;;;1.80;98.00;;;;;;5016217;28;20709;-83
2021/12/07 06:47:31;;;;;;;2.80;1.43;;;1.90;97.00;;;;;;5020013;28;20253;-83
2021/12/07 06:49:58;;;;;;;1.93;1.50;;;1.80;97.00;;;;;;5020105;28;20258;-84
2021/12/07 06:52:25;;;;;;;1.90;1.50;;;1.90;97.00;;;;;;5017821;28;20227;-84
2021/12/07 06:54:52;;;;;;;2.43;1.57;;;1.90;97.00;;;;;;5015181;28;20631;-83
2021/12/07 07:07:47;;;;;;;3.13;1.80;;;2.00;96.80;;;;;;5026037;28;20183;-85
2021/12/07 07:10:21;;;;;;;2.03;1.73;;;2.00;96.80;;;;;;5019278;28;20205;-83
2021/12/07 07:12:48;;;;;;;2.70;1.80;;;2.00;96.80;;;;;;5028349;28;20229;-83
2021/12/07 07:15:16;;;;;;;2.43;1.70;;;2.10;96.60;;;;;;5033043;28;20214;-86
2021/12/07 07:17:44;;;;;;;1.60;1.50;;;2.10;96.40;;;;;;5041851;28;20237;-83
2021/12/07 07:20:32;;;;;;;2.77;1.80;;;2.00;96.70;;;;;;5012233;28;20214;-83
2021/12/07 07:23:02;;;;;;;2.17;1.90;;;2.20;96.20;;;;;;5016477;28;20228;-84
2021/12/07 07:25:29;;;;;;;2.20;1.97;;;2.10;96.40;;;;;;5016796;28;20207;-84
2021/12/07 07:27:56;;;;;;;2.03;1.80;;;2.20;96.50;;;;;;5011645;28;20232;-82
2021/12/07 07:30:24;;;;;;;2.37;1.90;;;2.20;96.40;;;;;;5022092;28;20665;-82
2021/12/07 07:32:51;;;;;;;3.40;1.80;;;2.40;96.10;;;;;;5018944;28;20249;-84
2021/12/07 07:35:20;;;;;;;2.70;1.80;;;2.40;95.50;;;;;;5034147;28;20217;-82
2021/12/07 07:37:47;;;;;;;1.87;1.77;;;2.50;95.20;;;;;;5015050;28;20234;-83
2021/12/07 07:40:18;;;;;;;2.87;2.00;;;2.60;94.60;;;;;;5027785;28;20207;-82
2021/12/07 07:42:46;;;;;;;2.73;1.77;;;2.50;94.60;;;;;;5015053;28;20246;-84
2021/12/07 07:45:13;;;;;;;2.80;1.80;;;2.60;94.70;;;;;;5023947;28;20226;-84
2021/12/07 07:47:40;;;;;;;2.70;1.70;;;2.60;94.60;;;;;;5015809;28;20239;-83
2021/12/07 07:50:10;;;;;;;1.77;1.67;;;2.70;94.60;;;;;;5027092;28;20230;-83
2021/12/07 07:52:38;;;;;;;2.53;1.50;;;2.70;94.60;;;;;;5014737;28;20820;-84
2021/12/07 07:55:06;;;;;;;4.83;1.90;;;2.80;94.20;;;;;;5017690;28;20199;-83
2021/12/07 07:57:34;;;;;;;1.70;1.47;;;2.80;94.10;;;;;;5026194;28;20231;-84
2021/12/07 08:00:02;;;;;;;3.33;1.90;;;2.80;94.10;;;;;;5014997;28;20218;-85
2021/12/07 08:02:29;;;;;;;3.10;1.50;;;2.80;94.20;;;;;;5012906;28;20234;-86
2021/12/07 08:04:55;;;;;;;1.70;1.60;;;2.70;94.60;;;;;;5014827;28;20207;-85
2021/12/07 08:07:22;;;;;;;1.80;1.70;;;2.80;94.60;;;;;;5020404;28;20229;-84
2021/12/07 08:09:49;;;;;;;2.30;1.53;;;2.80;94.60;;;;;;5023815;28;20663;-86
2021/12/07 08:12:16;;;;;;;2.53;1.70;;;2.90;94.60;;;;;;5014909;28;20238;-84
2021/12/07 08:14:45;;;;;;;4.20;2.20;;;2.80;94.10;;;;;;5024704;28;20202;-85
2021/12/07 08:17:12;;;;;;;4.20;2.03;;;2.70;94.10;;;;;;5015436;28;20222;-85
2021/12/07 08:19:39;;;;;;;2.67;1.80;;;2.70;94.40;;;;;;5018917;28;20689;-85
2021/12/07 08:22:06;;;;;;;2.80;1.70;;;2.70;93.90;;;;;;5019450;28;20254;-85
2021/12/07 08:24:33;;;;;;;4.80;1.97;;;2.70;93.90;;;;;;5003289;28;20207;-86
2021/12/07 08:27:00;;;;;;;2.20;1.80;;;2.60;93.80;;;;;;5016864;28;20223;-83
2021/12/07 08:29:27;;;;;;;3.47;1.80;;;2.60;93.80;;;;;;5014952;28;20207;-83
2021/12/07 08:31:56;;;;;;;1.90;1.70;;;2.80;93.90;;;;;;5011130;28;20231;-84
2021/12/07 08:34:22;;;;;;;6.87;2.07;;;3.20;92.80;;;;;;5009355;28;20225;-83
2021/12/07 08:36:50;;;;;;;3.63;1.90;;;3.40;92.10;;;;;;5003794;28;20227;-85
2021/12/07 08:39:17;;;;;;;5.40;1.80;;;3.30;91.60;;;;;;5005622;28;20214;-84
2021/12/07 08:41:44;;;;;;;2.37;1.90;;;3.20;92.00;;;;;;5008291;28;20231;-84
2021/12/07 08:44:12;;;;;;;1.80;1.70;;;3.60;91.70;;;;;;5014364;28;20234;-86
2021/12/07 08:46:40;;;;;;;1.93;1.60;;;4.20;90.30;;;;;;5020784;28;20226;-87
2021/12/07 08:49:08;;;;;;;2.67;1.53;;;5.00;86.60;;;;;;4997995;28;20655;-88
2021/12/07 08:51:38;;;;;;;2.13;1.80;;;5.60;80.70;;;;;;5015961;28;20227;-86
2021/12/07 08:54:21;;;;;;;2.70;1.57;;;6.40;74.30;;;;;;5021199;28;20211;-86
2021/12/07 09:23:59;;;;;;;2.85;1.52;;;7.60;53.80;;;;;;5020308;28;20325;-86
2021/12/07 09:26:27;;;;;;;2.67;1.70;;;6.00;68.40;;;;;;5030280;28;20230;-87
2021/12/07 09:28:54;;;;;;;3.57;1.67;;;5.40;75.60;;;;;;5016368;28;20203;-88
2021/12/07 09:31:22;;;;;;;1.97;1.60;;;5.00;80.20;;;;;;5013622;28;20234;-85
2021/12/07 09:33:51;;;;;;;1.70;1.60;;;4.60;85.40;;;;;;5004458;28;20269;-87
2021/12/07 09:36:19;;;;;;;3.03;1.93;;;4.20;88.50;;;;;;5012490;28;20706;-85
2021/12/07 09:38:46;;;;;;;4.53;1.90;;;4.10;89.20;;;;;;5017785;28;20312;-88
2021/12/07 09:41:17;;;;;;;2.23;1.93;;;4.00;90.50;;;;;;5021239;28;20223;-86
2021/12/07 09:43:44;;;;;;;2.10;1.60;;;4.60;88.70;;;;;;5013579;28;20227;-87
2021/12/07 09:46:13;;;;;;;5.80;1.80;;;5.60;81.40;;;;;;5011549;28;20227;-87
2021/12/07 09:48:40;;;;;;;2.87;1.70;;;6.00;76.10;;;;;;5014260;28;20214;-87
2021/12/07 09:51:10;;;;;;;3.20;2.10;;;5.50;77.80;;;;;;5012586;28;20231;-89
2021/12/07 09:53:37;;;;;;;3.50;1.80;;;5.30;79.10;;;;;;5029139;28;20203;-85
2021/12/07 09:56:08;;;;;;;2.00;1.60;;;4.90;82.50;;;;;;5032919;28;20237;-86
2021/12/07 09:58:37;;;;;;;3.67;1.87;;;4.90;82.90;;;;;;5034871;28;20202;-86
2021/12/07 10:01:05;;;;;;;3.30;1.90;;;4.80;83.40;;;;;;5033377;28;20233;-86
2021/12/07 10:03:33;;;;;;;3.53;1.87;;;4.80;83.60;;;;;;5022022;28;20257;-85
2021/12/07 10:06:00;;;;;;;4.03;2.23;;;4.70;84.80;;;;;;5012403;28;20231;-86
2021/12/07 10:08:28;;;;;;;2.73;1.80;;;4.70;84.70;;;;;;5014183;28;20199;-85
2021/12/07 10:10:57;;;;;;;3.03;2.43;;;4.80;86.80;;;;;;5014180;28;20221;-85
2021/12/07 10:13:28;;;;;;;3.80;1.90;;;5.00;82.00;;;;;;5013837;28;20218;-84
2021/12/07 10:15:58;;;;;;;3.53;1.77;;;5.20;81.70;;;;;;5013803;28;20575;-84
2021/12/07 10:18:43;;;;;;;3.03;2.10;;;5.30;81.60;;;;;;5008724;28;20655;-87
2021/12/07 10:21:21;;;;;;;2.80;1.77;;;5.60;80.50;;;;;;4993004;28;20729;-90
2021/12/07 10:23:55;;;;;;;3.73;1.90;;;5.80;77.20;;;;;;4994362;28;20675;-85
2021/12/07 10:26:24;;;;;;;2.00;1.80;;;5.80;76.70;;;;;;4998797;28;20310;-87
2021/12/07 10:28:53;;;;;;;2.73;1.83;;;5.70;77.30;;;;;;5018532;28;20663;-86
2021/12/07 10:31:43;;;;;;;2.13;1.60;;;6.00;73.60;;;;;;5020115;28;20231;-86
2021/12/07 10:34:14;;;;;;;2.97;1.70;;;6.30;71.10;;;;;;5002317;28;20211;-86
2021/12/07 11:09:29;;;;;;;2.72;1.65;;;6.20;63.20;;;;;;5711610;23;20228;-88
2021/12/07 11:12:07;;;;;;;3.73;1.87;;;6.10;63.10;;;;;;5084346;28;20713;-89
2021/12/07 11:14:40;;;;;;;5.40;1.60;;;5.80;67.30;;;;;;5080941;28;20295;-87
2021/12/07 11:17:08;;;;;;;2.30;1.67;;;5.80;69.10;;;;;;5096489;28;20258;-85
2021/12/07 11:19:36;;;;;;;1.93;1.70;;;5.50;70.30;;;;;;5097513;28;20192;-85
2021/12/07 11:22:04;;;;;;;2.67;1.60;;;5.30;70.10;;;;;;5077470;28;20653;-86
2021/12/07 11:24:43;;;;;;;2.93;1.70;;;5.10;74.40;;;;;;5078076;28;20212;-85
2021/12/07 11:30:29;;;;;;;3.97;1.50;;;5.20;75.50;;;;;;5077872;28;20177;-85
2021/12/07 11:32:59;;;;;;;2.73;1.80;;;5.50;71.80;;;;;;5059196;28;20259;-85
2021/12/07 11:35:28;;;;;;;3.47;1.50;;;5.50;70.30;;;;;;5057440;28;20202;-85
2021/12/07 11:37:59;;;;;;;4.87;1.80;;;5.50;72.10;;;;;;5075421;28;20248;-86
2021/12/07 11:40:30;;;;;;;2.27;2.00;;;5.40;72.60;;;;;;5077047;28;20211;-84
2021/12/07 11:42:58;;;;;;;4.13;1.87;;;5.30;75.10;;;;;;5075704;28;20233;-86
2021/12/07 11:45:27;;;;;;;3.53;1.50;;;5.40;75.00;;;;;;5056698;28;20862;-85
2021/12/07 11:47:57;;;;;;;4.70;1.73;;;5.30;73.20;;;;;;5056671;28;20569;-85
2021/12/07 11:50:29;;;;;;;2.40;1.67;;;5.30;71.80;;;;;;5055605;28;20654;-85
2021/12/07 11:53:04;;;;;;;5.50;1.67;;;5.20;73.60;;;;;;5055314;28;20233;-86
2021/12/07 11:55:33;;;;;;;5.13;1.83;;;5.20;74.70;;;;;;5056643;28;20193;-87
2021/12/07 11:58:02;;;;;;;5.47;1.80;;;5.10;73.90;;;;;;5055932;28;20229;-85
2021/12/07 12:00:34;;;;;;;2.50;1.60;;;5.10;75.80;;;;;;5055728;28;20654;-84
2021/12/07 12:03:02;;;;;;;4.40;1.90;;;5.10;75.50;;;;;;5057113;28;20238;-84
2021/12/07 12:05:29;;;;;;;5.00;1.77;;;4.90;75.40;;;;;;5057282;28;20293;-86
2021/12/07 12:07:56;;;;;;;2.67;1.80;;;4.90;74.20;;;;;;5068804;28;20222;-85
2021/12/07 12:10:24;;;;;;;4.27;1.80;;;4.80;75.80;;;;;;5055214;28;20210;-85
2021/12/07 12:13:05;;;;;;;2.53;1.50;;;4.80;75.20;;;;;;5056080;28;20259;-85
2021/12/07 12:15:47;;;;;;;2.40;1.80;;;4.80;75.50;;;;;;5055614;28;20280;-85
2021/12/07 12:18:20;;;;;;;4.13;1.90;;;4.70;76.00;;;;;;5058312;28;20600;-86
2021/12/07 12:21:02;;;;;;;3.80;2.10;;;4.70;78.30;;;;;;5039025;28;20210;-83
2021/12/07 12:23:43;;;;;;;3.37;1.70;;;4.60;77.70;;;;;;5040476;28;20230;-86
2021/12/07 12:26:12;;;;;;;5.33;2.20;;;4.60;79.80;;;;;;5057544;28;20225;-83
2021/12/07 12:28:47;;;;;;;4.97;1.90;;;4.70;78.90;;;;;;5038821;28;20255;-85
2021/12/07 12:31:14;;;;;;;3.90;1.70;;;4.90;78.50;;;;;;5061877;28;20712;-86
2021/12/07 12:33:47;;;;;;;2.87;1.90;;;5.00;76.00;;;;;;5018525;28;20990;-87
2021/12/07 12:36:14;;;;;;;3.90;1.70;;;5.00;74.20;;;;;;5044392;28;20229;-87
2021/12/07 12:38:46;;;;;;;5.27;1.77;;;4.80;76.30;;;;;;5044008;28;20213;-83
2021/12/07 12:41:16;;;;;;;2.07;1.60;;;4.70;74.40;;;;;;5047859;28;20591;-84
2021/12/07 12:43:48;;;;;;;5.67;1.93;;;4.50;77.10;;;;;;5055392;28;20237;-84
2021/12/07 12:46:16;;;;;;;1.70;1.50;;;4.60;78.10;;;;;;5063154;28;20229;-84
2021/12/07 12:48:48;;;;;;;3.93;2.07;;;4.60;77.60;;;;;;5049213;28;20202;-85
2021/12/07 12:51:15;;;;;;;3.57;2.00;;;4.70;77.60;;;;;;5045105;28;20234;-84
2021/12/07 12:53:44;;;;;;;4.13;1.80;;;4.90;75.60;;;;;;5051704;28;20205;-83
2021/12/07 12:56:14;;;;;;;2.93;1.87;;;5.10;73.10;;;;;;5040817;28;20225;-83
2021/12/07 12:58:46;;;;;;;2.40;1.53;;;5.10;71.80;;;;;;5053861;28;20210;-83
2021/12/07 13:01:16;;;;;;;3.63;1.60;;;5.00;71.70;;;;;;5046602;28;20232;-83
2021/12/07 13:04:15;;;;;;;5.07;1.77;;;5.00;71.00;;;;;;5052378;28;20213;-84
2021/12/07 13:07:05;;;;;;;3.70;1.50;;;5.00;71.80;;;;;;5031655;28;20292;-87
2021/12/07 13:09:43;;;;;;;3.40;1.57;;;5.00;72.90;;;;;;5036974;28;20273;-86
2021/12/07 13:12:17;;;;;;;3.20;1.67;;;5.00;72.40;;;;;;5035684;28;20233;-84
2021/12/07 13:15:02;;;;;;;2.87;1.70;;;4.90;71.70;;;;;;5048499;28;20205;-85
2021/12/07 13:17:35;;;;;;;3.37;1.87;;;4.90;69.60;;;;;;5034118;28;20231;-84
2021/12/07 13:20:19;;;;;;;5.07;1.73;;;4.80;71.60;;;;;;5044934;28;20194;-83
2021/12/07 13:22:48;;;;;;;6.03;1.90;;;4.70;72.00;;;;;;5037383;28;20233;-84
2021/12/07 13:25:19;;;;;;;4.20;1.50;;;4.70;71.00;;;;;;5042510;28;20202;-84
2021/12/07 13:28:13;;;;;;;6.03;1.93;;;4.70;72.10;;;;;;5041778;28;20230;-84
2021/12/07 13:31:04;;;;;;;5.10;1.77;;;4.60;72.10;;;;;;5024470;28;20654;-83
2021/12/07 13:33:37;;;;;;;4.07;1.70;;;4.40;73.90;;;;;;5050216;28;20222;-85
2021/12/07 13:36:33;;;;;;;5.17;1.87;;;4.30;75.40;;;;;;5038069;28;20638;-83
2021/12/07 13:39:06;;;;;;;3.17;1.37;;;4.20;76.70;;;;;;5046446;28;20214;-84
2021/12/07 13:41:34;;;;;;;4.13;1.63;;;4.30;75.10;;;;;;5038405;28;20233;-85
2021/12/07 13:44:01;;;;;;;4.67;1.60;;;4.20;75.50;;;;;;5046426;28;20686;-83
2021/12/07 13:46:30;;;;;;;2.80;1.50;;;4.10;76.30;;;;;;5041771;28;20233;-85
2021/12/07 13:49:06;;;;;;;2.63;1.30;;;4.00;77.90;;;;;;5043925;28;20209;-86
2021/12/07 13:51:34;;;;;;;3.87;1.73;;;4.10;77.20;;;;;;5038565;28;20225;-87
2021/12/07 13:54:04;;;;;;;4.70;1.90;;;4.20;77.70;;;;;;5047667;28;20203;-85
2021/12/07 13:56:34;;;;;;;7.33;1.80;;;4.20;78.20;;;;;;5043416;28;20253;-84
2021/12/07 13:59:06;;;;;;;2.00;1.20;;;4.20;78.10;;;;;;5036817;28;20218;-84
2021/12/07 14:01:37;;;;;;;8.07;1.83;;;4.40;77.10;;;;;;5036946;28;20228;-85
2021/12/07 14:04:05;;;;;;;3.60;1.90;;;4.40;76.60;;;;;;5042589;28;20228;-85
2021/12/07 14:06:33;;;;;;;4.07;1.80;;;4.40;76.80;;;;;;5043172;28;20238;-86
2021/12/07 14:09:05;;;;;;;4.60;2.03;;;4.50;77.10;;;;;;5036718;28;20195;-86
2021/12/07 14:11:33;;;;;;;3.53;1.83;;;4.60;77.00;;;;;;5046112;28;20240;-86
2021/12/07 14:14:00;;;;;;;4.20;2.07;;;4.70;76.40;;;;;;5058069;28;20634;-85
2021/12/07 14:16:29;;;;;;;4.00;1.90;;;4.70;74.50;;;;;;5055311;28;20210;-86
2021/12/07 14:18:57;;;;;;;3.43;1.60;;;4.60;75.40;;;;;;5039087;28;20700;-84
2021/12/07 14:21:24;;;;;;;4.87;1.73;;;4.40;74.90;;;;;;5049018;28;20205;-84
2021/12/07 14:30:44;;;;;;;3.77;2.17;;;4.30;74.90;;;;;;5038177;28;20182;-90
2021/12/07 14:33:11;;;;;;;3.50;1.70;;;4.20;76.10;;;;;;5057857;28;20198;-83
2021/12/07 14:35:40;;;;;;;5.13;1.77;;;4.00;77.80;;;;;;5058615;28;20186;-84
2021/12/07 14:50:10;;;;;;;5.13;1.47;;;3.70;77.70;;;;;;5956452;22;20230;-85
2021/12/07 14:52:39;;;;;;;2.90;1.40;;;3.80;76.50;;;;;;5026277;28;20639;-84
2021/12/07 15:19:36;;;;;;;5.43;3.20;;;3.10;82.40;;;;;;5018958;28;20190;-84
2021/12/07 15:22:05;;;;;;;6.33;2.77;;;3.10;84.80;;;;;;5018784;28;20242;-85
2021/12/07 15:24:38;;;;;;;5.40;2.63;;;3.10;84.00;;;;;;5018686;28;20219;-85
2021/12/07 15:27:07;;;;;;;6.50;2.57;;;3.10;84.70;;;;;;5009865;28;20733;-83
2021/12/07 15:29:37;;;;;;;4.87;2.40;;;3.00;84.70;;;;;;5022945;28;20678;-87
2021/12/07 15:32:06;;;;;;;5.33;2.07;;;2.80;84.80;;;;;;5015667;28;20237;-84
2021/12/07 15:34:37;;;;;;;5.73;2.40;;;2.70;86.40;;;;;;5021128;28;20286;-89
2021/12/07 15:37:08;;;;;;;3.80;2.10;;;2.80;87.60;;;;;;5037014;28;20245;-88
2021/12/07 15:39:37;;;;;;;7.37;2.57;;;2.70;87.50;;;;;;5028321;28;20203;-85
2021/12/07 15:42:10;;;;;;;3.30;2.00;;;2.80;87.60;;;;;;5034418;28;20239;-86
2021/12/07 15:44:40;;;;;;;4.40;2.00;;;2.80;87.60;;;;;;5010834;28;20249;-84
2021/12/07 15:47:09;;;;;;;9.70;5.10;;;2.70;87.60;;;;;;5014854;28;20310;-82
2021/12/07 15:49:43;;;;;;;4.67;2.70;;;2.60;88.80;;;;;;5008270;28;20211;-82
2021/12/07 15:52:14;;;;;;;4.90;2.97;;;2.60;90.00;;;;;;5007714;28;20302;-86
2021/12/07 15:54:53;;;;;;;6.10;3.37;;;2.50;90.20;;;;;;4992288;28;20230;-86
2021/12/07 15:57:22;;;;;;;10.17;3.93;;;2.50;90.40;;;;;;4988785;28;20286;-84
2021/12/07 15:59:57;;;;;;;13.83;7.10;;;2.40;90.60;;;;;;4993378;28;20207;-85
2021/12/07 16:02:25;;;;;;;9.67;5.13;;;2.40;90.70;;;;;;5003476;28;20589;-85
2021/12/07 16:05:06;;;;;;;14.67;6.10;;;2.40;90.80;;;;;;5013262;28;20226;-83
2021/12/07 16:07:33;;;;;;;11.47;5.33;;;2.10;91.00;;;;;;5011457;28;20223;-86
2021/12/07 16:10:07;;;;;;;10.77;4.93;;;2.10;91.80;;;;;;5005732;28;20202;-83
2021/12/07 16:12:34;;;;;;;12.33;5.13;;;2.00;91.80;;;;;;5007448;28;20586;-89
2021/12/07 16:15:14;;;;;;;13.63;5.03;;;2.10;92.00;;;;;;5015403;28;20217;-83
2021/12/07 16:17:43;;;;;;;11.00;5.13;;;2.10;92.10;;;;;;5004236;28;20229;-83
2021/12/07 16:20:15;;;;;;;12.60;4.43;;;1.90;92.20;;;;;;5007320;28;20196;-83
2021/12/07 16:22:42;;;;;;;7.30;4.80;;;1.90;92.60;;;;;;5007616;28;20223;-85
2021/12/07 16:25:10;;;;;;;10.67;6.03;;;1.90;92.80;;;;;;5004444;28;20219;-87
2021/12/07 16:27:40;;;;;;;14.63;5.83;;;1.90;92.80;;;;;;5003644;28;20255;-85